NWS Home NWS Lubbock West Texas Mesonet Latest Conditions as of 0235 PM, Sun Nov 17, 2019

Latest   N   C   S   Daily Sum   3hrΔ   24hrΔ   Soil Data 
Site Map   24hr Precip   72hr Precip   Google Plot


Station Time of Last Temp Dew Pt. RH Wind Direction Wind Speed Wind Gust Max Wind Max Temp Min Temp Max RH Min RH Altimeter 1HR Rain Today's Rain Solar Rad RFTI
Abernathy 5ENE  02:30 PM 60 35 39% N1114 31 mph 17° @ 0425 AM 60 37 82 39 30.11" 0 0 534 0
Adrian 6WSW  02:30 PM 55 32 41% E11 37 mph 23° @ 0129 AM 56 38 86 36 30.13" 0 0 503 0
Aiken 3WSW  02:30 PM 58 35 41% NE78 33 mph 21° @ 0911 AM 58 36 87 41 30.11" 0 0 548 0
Amarillo 15NNW   02:30 PM 59 34 39% NW13 32 mph 15° @ 0111 AM 59 39 86 37 30.10" 0 0 494 0
Amarillo 7SSE  02:30 PM 56 33 40% N45 34 mph 5° @ 0222 AM 57 40 80 40 30.11" 0 0 520 0
Amarillo 9NNE  02:30 PM 58 32 36% N57 32 mph 357° @ 0211 AM 59 38 84 36 30.10" 0 0 454 0
Amherst 1NE  02:30 PM 58 35 43% N69 38 mph 357° @ 0340 AM 58 36 77 42 30.12" 0 0 481 0
Andrews 2E  02:30 PM 62 31 31% N1014 32 mph 7° @ 1005 AM 63 43 83 31 30.11" 0 0 333 0
Anton 6SSW  02:30 PM 59 35 40% N913 31 mph 359° @ 0505 AM 60 35 81 40 30.12" 0 0 525 0
Aspermont 3NE  02:30 PM 66 39 37% N1419 31 mph 5° @ 0935 AM 66 36 96 37 30.06" 0 0 520 0
Big Bend NP - Castolon  02:30 PM 77 33 20% NW35 18 mph 333° @ 0148 PM 78 46 94 20 30.04" 0 0 598 0
Big Bend NP - Persimmon Gap  02:30 PM 72 31 22% N59 29 mph 7° @ 1039 AM 73 47 89 21 30.08" 0 0 488 0
Big Lake 1WNW  02:30 PM 62 37 39% NW910 26 mph 342° @ 1201 PM 63 41 86 38 30.08" 0 0 414 0
Bootleg 11WNW  02:30 PM 56 32 40% SE23 33 mph 353° @ 0224 AM 56 35 90 34 30.15" 0 0 479 0
Boys Ranch 1WSW  02:30 PM 60 33 36% N79 36 mph 16° @ 0159 AM 60 39 83 32 30.11" 0 0 492 0
Brownfield 2S  02:30 PM 61 35 38% NE813 35 mph 6° @ 0425 AM 61 39 89 38 30.13" 0 0 550 0
Canadian 6E  02:30 PM 59 31 35% N911 37 mph 2° @ 0230 AM 61 39 80 33 30.05" 0 0 511 0
Caprock Canyons State Park  02:30 PM 59 33 37% N1316 42 mph 352° @ 0344 AM 60 46 70 36 30.09" 0 0 533 0
Childress 2NNE  02:30 PM 64 33 32% N1317 32 mph 1° @ 0935 AM 64 41 74 32 30.06" 0 0 484 0
Clarendon 2WSW  02:30 PM 60 32 36% N811 34 mph 2° @ 0335 AM 60 43 77 35 30.08" 0 0 516 0
Claude 12SW  02:30 PM 57 33 40% N1011 35 mph 355° @ 0251 AM 57 40 78 40 30.10" 0 0 539 0
Clyde 2WNW  02:30 PM 62 38 40% N1518 25 mph 356° @ 0207 PM 64 41 84 39 30.04" 0 0 516 0
Colorado City 5NW  02:30 PM 65 36 34% N1518 30 mph 19° @ 1035 AM 65 35 96 34 30.08" 0 0 549 0
Coyanosa 2N  02:30 PM 64 34 32% W89 20 mph 320° @ 0937 AM 64 40 93 32 30.12" 0 0 359 0
Crane 1NNW   02:30 PM 65 35 33% N1113 28 mph 178° @ 1213 AM 66 36 95 32 30.10" 0 0 541 0
Crowell 1E  02:30 PM 66 38 37% NE1117 35 mph 9° @ 0929 AM 66 40 83 37 30.05" 0 0 524 0
Dell City  02:30 PM 63 33 31% SW68 21 mph 9° @ 0957 AM 64 34 85 31 30.15" 0 0 478 0
Denver City 7WNW  02:30 PM 61 31 32% NE711 30 mph 2° @ 0630 AM 61 42 78 32 30.14" 0 0 559 0
Dimmitt 2NE  02:30 PM 56 35 47% N49 40 mph 358° @ 0305 AM 56 38 81 45 30.12" 0 0 525 0
Doole 3WNW  02:30 PM 66 42 42% NW1012 17 mph 319° @ 1229 PM 66 33 96 41 30.00" 0 0 551 0
Dora NM 2SW  02:30 PM 57 33 40% S24 27 mph 14° @ 0320 AM 58 37 71 35 30.15" 0 0 502 0
Dozier 3W  02:30 PM 62 33 34% N912 30 mph 5° @ 0437 AM 62 46 72 34 30.08" 0 0 513 0
Earth 9WSW  02:30 PM 58 35 42% N47 39 mph 2° @ 0319 AM 58 37 78 42 30.13" 0 0 523 0
Endee NM 2SW  02:30 PM 57 34 41% N12 40 mph 20° @ 0202 AM 57 32 87 40 30.13" 0 0 513 0
Estelline 3SSE  02:30 PM 64 34 33% N914 28 mph 15° @ 0958 AM 64 43 74 33 30.07" 0 0 499 0
Floydada 2NNE  02:30 PM 59 33 38% N1116 30 mph 13° @ 0855 AM 60 36 89 37 30.09" 0 0 523 0
Fluvanna 3WNW  02:30 PM 62 35 37% NE1317 38 mph 13° @ 1005 AM 62 35 94 37 30.09" 0 0 525 0
Fort Chadbourne  02:30 PM 64 39 39% N1422 22 mph 9° @ 1143 AM 65 34 99 39 30.05" 0 0 395 0
Fort Lancaster  02:30 PM 67 39 36% NW1521 25 mph 302° @ 1108 AM 67 38 100 36 30.05" 0 0 561 0
Fort Lewis CO  02:30 PM 59 17 19% W1116 20 mph 298° @ 0226 PM 59 20 62 19 30.23" 0 0 566 0
Fort McKavett  02:30 PM 65 44 46% N1115 18 mph 344° @ 1247 PM 67 39 89 41 30.03" 0 0 533 0
Friona 2NE  02:30 PM 57 34 42% NE48 37 mph 2° @ 0250 AM 57 37 86 40 30.13" 0 0 544 0
Fritch 1WNW  02:30 PM 58 33 39% N24 33 mph 14° @ 0101 AM 58 41 82 39 30.10" 0 0 487 0
Gail 2ESE  02:30 PM 64 34 33% N1115 31 mph 9° @ 0910 AM 64 35 91 33 30.09" 0 0 546 0
Goodlett 3W  02:30 PM 65 35 34% N1218 33 mph 356° @ 0900 AM 65 40 76 34 30.04" 0 0 499 0
Goodnight  02:30 PM 59 35 40% N911 35 mph 349° @ 0246 AM 60 41 76 37 30.11" 0 0 497 0
Graham 5SSW  02:30 PM 61 35 39% NE1216 36 mph 10° @ 0535 AM 61 39 92 38 30.10" 0 0 552 0
Guadalupe Mtns Natl Park  02:30 PM 55 30 39% NE67 36 mph 301° @ 1231 AM 62 46 51 21 30.19" 0 0 459 0
Guthrie 10WSW  02:30 PM 64 35 34% N1319 36 mph 1° @ 1000 AM 64 39 91 34 30.07" 0 0 422 0
Hackberry 2 SSE  02:30 PM 65 37 35% N1214 32 mph 9° @ 0947 AM 66 38 93 35 30.06" 0 0 548 0
Happy 1E  02:30 PM 57 35 45% N56 40 mph 8° @ 0253 AM 57 40 77 43 30.12" 0 0 526 0
Hart 3N  02:30 PM 57 36 45% N57 41 mph 352° @ 0325 AM 57 38 83 45 30.12" 0 0 536 0
Haskell 1NW  02:30 PM 64 38 38% N1521 35 mph 15° @ 1015 AM 64 36 90 38 30.05" 0 0 503 0
Hereford 2NW  02:30 PM 56 34 43% W46 34 mph 12° @ 0145 AM 56 38 83 41 30.12" 0 0 519 0
Hobbs NM 5NW  02:30 PM 63 30 29% SE22 32 mph 9° @ 0627 AM 64 40 85 28 30.17" 0 0 445 0
Jayton 1SSE  02:30 PM 64 37 38% N1321 39 mph 7° @ 0815 AM 64 37 95 38 30.08" 0 0 536 0
Junction 1SSW  02:30 PM 69 46 44% NW57 15 mph 205° @ 0925 AM 69 31 100 44 30.00" 0 0 487 0
Kent 9E  02:30 PM 59 30 33% N25 27 mph 232° @ 1230 AM 62 49 48 32 30.17" 0 0 685 0
Knox City 3NW  02:30 PM 66 39 38% N1522 33 mph 8° @ 0950 AM 66 39 93 38 30.06" 0 0 455 0
Lake Alan Henry 1NW  02:30 PM 64 37 36% N710 29 mph 26° @ 0938 AM 65 39 94 36 30.09" 0 0 522 0
Lake McClellan 2NW  02:30 PM 58 32 38% N1214 36 mph 350° @ 0205 AM 58 41 72 36 30.09" 0 0 501 0
Lamesa 2SE  02:30 PM 61 36 40% N1017 34 mph 9° @ 0950 AM 61 37 94 40 30.12" 0 0 595 0
Lesley 2S  02:30 PM 64 34 33% N1013 31 mph 354° @ 0318 AM 64 47 71 33 30.07" 0 0 331 0
Levelland 4S  02:30 PM 60 34 39% N1215 33 mph 5° @ 0520 AM 60 34 86 39 30.13" 0 0 534 0
Lomax 1SSE  02:30 PM 63 34 34% N1820 32 mph 14° @ 0949 AM 64 39 91 33 30.09" 0 0 328 0
Lubbock 3WNW TTU  02:30 PM 61 34 36% N713 27 mph 16° @ 0940 AM 61 39 87 36 30.11" 0 0 557 0
McCamey 1SSW  02:30 PM 64 36 36% NW1013 23 mph 356° @ 1020 AM 64 40 92 35 30.10" 0 0 571 0
McLean 1E  02:30 PM 58 32 37% NW1420 33 mph 355° @ 0335 AM 59 41 81 37 30.07" 0 0 505 0
Memphis 1NE  02:30 PM 62 33 33% N1117 34 mph 6° @ 0415 AM 62 46 67 33 30.07" 0 0 428 0
Mertzon 3NNE  02:30 PM 65 38 37% N1315 23 mph 204° @ 1252 AM 66 44 74 36 30.05" 0 0 561 0
Morton 1ENE  02:30 PM 60 33 36% N710 33 mph 1° @ 0350 AM 60 39 70 36 30.13" 0 0 508 0
Muleshoe 2SSW  02:30 PM 57 36 46% N36 34 mph 7° @ 0300 AM 57 36 80 42 30.13" 0 0 534 0
New Home  02:30 PM 61 35 39% NE1518 30 mph 14° @ 0901 AM 61 37 95 38 30.13" 0 0 541 0
Northfield 1S  02:30 PM 64 32 31% N913 29 mph 9° @ 0920 AM 64 40 83 31 30.07" 0 0 499 0
O'Donnell 1N  02:30 PM 64 37 37% N1117 35 mph 4° @ 0505 AM 64 37 96 37 30.11" 0 0 497 0
Odell 4ENE  02:30 PM 65 36 34% N1621 30 mph 9° @ 1009 AM 66 38 85 33 30.05" 0 0 499 0
Olton 6S  02:30 PM 57 35 43% N813 35 mph 7° @ 0425 AM 58 32 84 42 30.13" 0 0 492 0
Paducah 10SW  02:30 PM 64 35 34% N1624 33 mph 359° @ 0940 AM 65 40 91 34 30.06" 0 0 462 0
Palo Duro 4E (JA Ranch)  02:30 PM 62 34 36% N910 37 mph 3° @ 0314 AM 62 42 79 35 30.09" 0 0 510 0
Palo Duro Canyon SP Floor  02:30 PM 62 34 35% W34 24 mph 342° @ 0252 AM 63 41 72 35 30.09" 0 0 503 0
Palo Duro Canyon State Park Rim  02:30 PM 58 32 38% NW710 36 mph 349° @ 0138 AM 59 41 74 37 30.11" 0 0 546 0
Palo Duro Reservoir 1NW   02:30 PM 58 30 34% NW79 34 mph 356° @ 0105 AM 58 38 84 34 30.09" 0 0 477 0
Pampa 2E  02:30 PM 56 32 40% NW1014 30 mph 353° @ 0230 AM 56 37 82 39 30.09" 0 0 495 0
Panhandle 1SSW  02:30 PM 56 32 39% N1013 35 mph 356° @ 0148 AM 57 39 82 39 30.10" 0 0 514 0
Plains 3N  02:30 PM 60 35 39% N710 32 mph 358° @ 0525 AM 61 42 80 39 30.14" 0 0 549 0
Plainview 1S  02:30 PM 58 35 42% N912 31 mph 7° @ 0405 AM 59 41 80 40 30.10" 0 0 484 0
Post 1NE  02:30 PM 64 33 32% N1117 30 mph 20° @ 0945 AM 64 39 91 32 30.10" 0 0 531 0
Ralls 1SE  02:30 PM 60 35 38% N1115 35 mph 10° @ 0850 AM 60 40 86 38 30.11" 0 0 533 0
Reese Center  02:30 PM 60 35 38% NE912 31 mph 7° @ 0430 AM 60 36 84 38 30.12" 0 0 554 0
Roaring Springs 3N  02:30 PM 61 37 42% N1319 33 mph 12° @ 0945 AM 61 44 89 42 30.08" 0 0 484 0
Romero 11SSW  02:30 PM 58 32 38% W34 37 mph 10° @ 0128 AM 58 38 88 35 30.11" 0 0 493 0
Rotan 5W  02:30 PM 64 38 38% N1517 33 mph 359° @ 0905 AM 64 39 91 38 30.08" 0 0 539 0
San Angelo 7NW  02:30 PM 66 35 32% NW1019 21 mph 345° @ 1110 AM 66 37 78 32 30.04" 0 0 547 0
Seagraves 1SW  02:30 PM 62 34 36% N813 32 mph 6° @ 0935 AM 62 39 91 36 30.13" 0 0 506 0
Segovia 7SSW  02:30 PM 67 47 49% NW57 19 mph 205° @ 0828 AM 67 43 98 49 30.01" 0 0 572 0
Seminole 2NNE  02:30 PM 62 31 31% NE1013 35 mph 7° @ 0430 AM 62 42 85 31 30.12" 0 0 583 0
Seymour 3NW  02:30 PM 65 38 37% N1622 29 mph 16° @ 1020 AM 65 36 91 37 30.03" 0 0 521 0
Sierra Blanca 1SSE  02:30 PM 62 30 29% SE36 19 mph 348° @ 0810 AM 63 40 81 28 30.17" 0 0 432 0
Silverton 7ESE  02:30 PM 59 33 39% N714 40 mph 357° @ 0300 AM 59 43 70 38 30.09" 0 0 489 0
Slaton 2NE  02:30 PM 61 36 40% N1119 33 mph 359° @ 0705 AM 61 38 93 39 30.11" 0 0 488 0
Smyer  02:30 PM 61 35 38% N1114 29 mph 4° @ 0845 AM 61 38 80 38 30.13" 0 0 540 0
Snyder 3E  02:30 PM 63 36 38% N1418 39 mph 10° @ 0935 AM 64 40 94 37 30.08" 0 0 488 0
Snyder 3SSW  02:30 PM 64 37 36% N1719 38 mph 13° @ 1015 AM 64 36 97 36 30.09" 0 0 536 0
South Plains 3ENE  02:30 PM 59 34 39% N45 35 mph 8° @ 0331 AM 60 40 79 38 30.10" 0 0 506 0
Spur 1W  02:30 PM 63 36 37% NE1015 41 mph 22° @ 0915 AM 64 36 94 36 30.08" 0 0 518 0
St. Lawrence 5SW  02:30 PM 63 35 35% N1317 33 mph 26° @ 0930 AM 64 36 95 35 30.08" 0 0 457 0
Stamford 5ESE  02:30 PM 64 40 40% N1721 30 mph 3° @ 0937 AM 65 37 93 39 30.06" 0 0 529 0
Sterling City 4WSW  02:30 PM 64 35 34% N1518 25 mph 338° @ 0124 PM 65 33 100 34 30.07" 0 0 293 0
Stinnett 1NNW  02:30 PM 56 32 39% NW510 40 mph 3° @ 0209 AM 57 38 87 38 30.11" 0 0 511 0
Stratford 4WNW  02:30 PM 58 27 30% NW810 35 mph 6° @ 1202 AM 58 35 90 30 30.11" 0 0 491 0
Sundown 8WSW  02:30 PM 61 33 35% N913 34 mph 4° @ 0405 AM 62 39 77 34 30.13" 0 0 489 0
Sweetwater 11SW   02:30 PM 61 37 40% N1720 34 mph 17° @ 0906 AM 62 39 89 39 30.07" 0 0 468 0
Tahoka 3NNE  02:30 PM 63 35 36% N1720 31 mph 16° @ 0903 AM 63 35 95 36 30.12" 0 0 544 0
Tarzan 2WNW  02:30 PM 62 36 38% N1214 20 mph 17° @ 0159 PM 62 60 40 38 30.10" 0 0 611 0
Tatum NM 2SW  02:30 PM 60 32 34% NW36 32 mph 6° @ 0515 AM 61 40 69 34 30.16" 0 0 604 0
Throckmorton 1SW  02:30 PM 64 38 38% N1014 24 mph 355° @ 1014 AM 65 37 88 37 30.04" 0 0 522 0
Truscott 2SE  02:30 PM 65 37 36% N810 29 mph 343° @ 0152 PM 66 39 89 35 30.05" 0 0 496 0
Tulia 2ENE  02:30 PM 57 35 43% N69 36 mph 355° @ 0330 AM 58 40 73 43 30.11" 0 0 468 0
Turkey 2WSW  02:30 PM 61 34 36% NW1016 31 mph 328° @ 0330 AM 61 43 80 36 30.08" 0 0 467 0
Umbarger 3NNE  02:30 PM 57 34 43% N79 37 mph 7° @ 0156 AM 57 39 82 42 30.12" 0 0 503 0
Van Horn 3ENE  02:30 PM 62 31 32% E57 23 mph 36° @ 1049 AM 63 36 92 30 30.16" 0 0 316 0
Vigo Park  02:30 PM 58 36 43% N810 35 mph 353° @ 0323 AM 58 41 76 41 30.11" 0 0 482 0
Wall 2E  02:30 PM 65 40 40% N1013 21 mph 352° @ 1220 PM 65 40 84 40 30.04" 0 0 435 0
Weinert 2NNE  02:30 PM 65 38 37% N1822 33 mph 20° @ 1011 AM 65 38 87 36 30.05" 0 0 508 0
Welch  02:30 PM 62 35 37% N79 34 mph 20° @ 0952 AM 63 34 100 36 30.12" 0 0 574 0
White River Lake 6NW  02:30 PM 63 36 37% N1116 42 mph 1° @ 0900 AM 63 39 90 37 30.09" 0 0 545 0
Wolfforth 6SSW  02:30 PM 61 35 39% NE1117 31 mph 3° @ 0350 AM 61 38 89 39 30.12" 0 0 559 0

West Texas Mesonet Home   Site Map/Menu  NWS Lubbock Soil Data  Daily Summary Page  24hr Precip  72hr Precip  Google Plot